NWS Home NWS Lubbock West Texas Mesonet Central Sector Latest Conditions as of 0630 PM, Sat May 25, 2019

Latest   N   C   S   Daily Sum   3hrΔ   24hrΔ   Soil Data 
Site Map   24hr Precip   72hr Precip   Google Plot


Station Time of Last Temp Dew Pt. RH Wind Direction Wind Speed Wind Gust Max Wind Max Temp Min Temp Max RH Min RH Altimeter 1HR Rain Today's Rain Solar Rad Wind ChillRed Flag
Abernathy 5ENE  06:25 PM 73 66 83% S1723 35 mph 141° @ 0525 PM 75 63 98 83 29.96" 0 0.00 22    
Aiken 3WSW  06:25 PM 63 62 97% W2123 30 mph 153° @ 0545 PM 72 62 99 78 30.00" 0.22 0.22 1    
Amherst 1NE  06:25 PM 63 59 90% E1320 43 mph 167° @ 0555 PM 73 60 97 81 29.93" 0.22 1.33 556    
Anton 6SSW  06:25 PM 77 65 71% S1524 44 mph 151° @ 0500 PM 79 63 97 67 29.96" 0 0.00 123    
Aspermont 3NE  06:25 PM 84 70 65% SE1524 29 mph 176° @ 0100 PM 86 70 91 62 29.87" 0 0.00 336    
Bootleg 11WNW  06:25 PM 76 63 65% E1618 30 mph 6° @ 0153 PM 78 55 100 53 29.95" 0 0.88 400    
Brownfield 2S  06:25 PM 83 65 55% S2834 39 mph 173° @ 0600 PM 86 65 94 50 29.90" 0 0.00 417    
Caprock Canyons State Park  06:25 PM 70 67 90% N00 27 mph 165° @ 1208 AM 76 63 99 78 29.90" 0 0.00 2    
Childress 2NNE  06:25 PM 80 68 72% S1418 28 mph 173° @ 0530 PM 81 61 100 70 29.86" 0 0.00 17    
Clarendon 2WSW  06:25 PM 68 64 93% NW811 37 mph 277° @ 0420 PM 75 62 98 80 29.95" 0.03 0.96 2    
Claude 12SW  06:25 PM 63 62 94% E1014 35 mph 137° @ 0409 PM 73 62 100 76 29.96" 0.01 0.31 31    
Crowell 1E  06:25 PM 84 70 63% S2428 32 mph 172° @ 0452 PM 87 65 99 59 29.86" 0 0.00 109    
Denver City 7WNW  06:25 PM 81 63 56% SE2127 49 mph 182° @ 0435 PM 87 63 97 39 29.90" 0 0.51 433    
Dimmitt 2NE  06:25 PM 69 59 74% SE1520 37 mph 147° @ 0255 PM 77 64 96 64 29.94" 0.01 0.03 284    
Dora NM 2SW  06:25 PM 83 43 25% SW1723 55 mph 140° @ 0115 PM 86 62 100 23 29.89" 0 0.63 252    
Earth 9WSW  06:25 PM 68 60 75% SE2124 42 mph 138° @ 0609 PM 75 63 96 70 29.93" 0 0.09 84    
Estelline 3SSE  06:25 PM 80 70 71% S1012 23 mph 182° @ 1223 PM 81 63 98 69 29.86" 0 0.00 10    
Floydada 2NNE  06:25 PM 74 67 82% SE1925 29 mph 143° @ 0510 PM 77 63 99 78 29.94" 0 0.01 7    
Fluvanna 3WNW  06:25 PM 82 65 58% S2429 38 mph 157° @ 0555 PM 83 68 95 57 29.91" 0 0.00 435    
Friona 2NE  06:25 PM 74 62 71% E1822 33 mph 137° @ 0200 PM 78 60 98 61 29.93" 0.01 0.15 453    
Gail 2ESE  06:25 PM 83 65 59% S2027 32 mph 150° @ 0530 PM 84 68 93 58 29.89" 0 0.00 368    
Goodlett 3W  06:25 PM 81 69 70% S1521 31 mph 164° @ 0530 PM 84 62 98 65 29.84" 0 0.02 28    
Graham 5SSW  06:25 PM 81 65 63% S2332 44 mph 154° @ 0500 PM 81 68 96 61 29.87" 0 0.00 446    
Guthrie 10WSW  06:25 PM 81 67 67% SE1925 31 mph 171° @ 1230 PM 84 64 96 63 29.85" 0 0.01 113    
Hackberry 2 SSE  06:25 PM 82 71 67% SE1518 31 mph 173° @ 0549 PM 87 64 99 59 29.86" 0 0.01 66    
Happy 1E  06:25 PM 65 61 86% SE811 33 mph 161° @ 0344 PM 77 62 98 69 29.99" 0 0.14 38    
Hart 3N  06:25 PM 65 61 90% E1822 32 mph 146° @ 0255 PM 72 62 98 70 29.96" 0.04 0.12 12    
Haskell 1NW  06:25 PM 85 68 61% S1625 28 mph 172° @ 1220 PM 87 71 87 58 29.88" 0 0.00 345    
Hereford 2NW  06:25 PM 72 62 73% SE1625 42 mph 251° @ 0325 PM 79 58 98 61 29.93" 0 0.46 458    
Hobbs NM 5NW  06:25 PM 85 60 44% SE1924 49 mph 176° @ 0408 PM 88 67 88 25 29.93" 0 0.00 423    
Jayton 1SSE  06:25 PM 84 68 61% S1724 30 mph 166° @ 1010 AM 84 66 94 61 29.86" 0 0.00 428    
Knox City 3NW  06:25 PM 85 69 64% SE1621 33 mph 171° @ 1145 AM 89 69 94 55 29.86" 0 0.00 125    
Lake Alan Henry 1NW  06:25 PM 83 66 56% S2633 36 mph 181° @ 0620 PM 84 70 90 56 29.85" 0 0.00 378    
Lamesa 2SE  06:25 PM 82 65 61% S2835 36 mph 154° @ 0555 PM 83 68 95 59 29.91" 0 0.00 398    
Lesley 2S  06:25 PM 73 70 93% NW56 24 mph 172° @ 0110 PM 78 62 98 75 29.88" 0 0.01 3    
Levelland 4S  06:25 PM 81 64 60% S2737 43 mph 156° @ 0420 PM 84 63 98 53 29.92" 0 0.00 439    
Lubbock 3WNW TTU  06:25 PM 79 66 69% S1521 35 mph 157° @ 0555 PM 80 63 100 66 29.93" 0 0.01 352    
Memphis 1NE  06:25 PM 76 69 85% W47 22 mph 169° @ 0140 PM 78 62 99 77 29.88" 0 0.00 8    
Morton 1ENE  06:25 PM 76 64 69% S1521 47 mph 202° @ 0135 PM 76 58 100 54 29.90" 0.02 1.04 427    
Muleshoe 2SSW  06:25 PM 72 59 65% SE2330 34 mph 143° @ 0215 PM 77 64 97 61 29.91" 0 0.36 567    
New Home  06:25 PM 81 67 63% S2027 35 mph 179° @ 0603 PM 82 63 98 61 29.93" 0 0.00 154    
Northfield 1S  06:25 PM 78 67 73% S1215 25 mph 177° @ 0540 PM 81 62 98 68 29.89" 0 0.03 7    
O'Donnell 1N  06:25 PM 81 62 55% S2233 34 mph 161° @ 0555 PM 83 68 99 54 29.90" 0 0.00 297    
Odell 4ENE  06:25 PM 83 70 66% S2429 31 mph 156° @ 0603 PM 85 64 96 63 29.85" 0 0.00 94    
Olton 6S  06:25 PM M M M% SE2030 52 mph 35° @ 0250 PM 90** M 99 M 29.96" 0.54 2.96 37 XX 20
Paducah 10SW  06:25 PM 80 69 73% S1318 30 mph 171° @ 0505 PM 84 63 100 64 29.87" 0 0.00 56    
Palo Duro 4E (JA Ranch)  06:25 PM 69 67 93% SW45 35 mph 187° @ 0428 PM 76 60 100 79 29.94" 0.07 0.44 4    
Palo Duro Canyon SP Floor  06:25 PM 67 63 89% NW34 23 mph 141° @ 0235 PM 79 64 95 68 29.95" 0 0.25 32    
Palo Duro Canyon State Park Rim  06:25 PM 63 60 90% SE68 29 mph 137° @ 0248 PM 76 62 96 70 29.97" 0.01 0.84 132    
Plains 3N  06:25 PM 80 66 65% SE2229 66 mph 157° @ 0455 PM 87 63 97 46 29.91" 0 0.15 447    
Plainview 1S  06:25 PM 62 61 100% S24 39 mph 325° @ 0555 PM 70 61 100 86 29.98" 2.24 2.30 1    
Post 1NE  06:25 PM 83 66 58% S2128 35 mph 167° @ 0615 PM 83 65 99 58 29.87" 0 0.00 366    
Ralls 1SE  06:25 PM 75 66 78% SE1823 28 mph 146° @ 0500 PM 78 63 97 74 29.94" 0.01 0.01 87    
Reese Center  06:25 PM 78 66 67% S3036 43 mph 155° @ 0535 PM 82 63 96 64 29.93" 0 0.01 320    
Roaring Springs 3N  06:25 PM 76 70 86% SE1723 30 mph 155° @ 0455 PM 80 60 100 78 29.89" 0 0.00 27    
Rotan 5W  06:25 PM 85 68 57% SE2631 35 mph 149° @ 0623 PM 85 70 91 56 29.88" 0 0.00 433    
Seagraves 1SW  06:25 PM 84 64 55% SE2128 36 mph 150° @ 0430 PM 88 67 93 48 29.89" 0 0.02 396    
Seminole 2NNE  06:25 PM 83 62 52% SE2733 33 mph 143° @ 0625 PM 86 66 90 49 29.90" 0 0.00 450    
Seymour 3NW  06:25 PM 84 69 64% SE1826 31 mph 161° @ 0135 PM 87 67 93 60 29.87" 0 0.00 123    
Silverton 7ESE  06:25 PM 70 66 93% SE1216 27 mph 145° @ 0300 AM 73 63 100 85 29.92" 0 0.01 1    
Slaton 2NE  06:25 PM 79 67 67% S2026 35 mph 163° @ 0455 PM 81 64 99 66 29.93" 0 0.01 226    
Smyer  06:25 PM 80 68 67% S1723 37 mph 163° @ 0458 PM 82 64 97 54 29.93" 0 0.01 431    
Snyder 3E  06:25 PM 83 66 60% SE2534 37 mph 157° @ 0615 PM 84 68 99 58 29.88" 0 0.00 389    
Snyder 3SSW  06:25 PM 83 67 59% SE2533 35 mph 152° @ 0624 PM 84 69 97 58 29.88" 0 0.00 405    
South Plains 3ENE  06:25 PM 73 69 87% SE912 26 mph 183° @ 1119 AM 74 63 99 83 29.94" 0 0.00 2    
Spur 1W  06:25 PM 80 67 68% SE1015 25 mph 179° @ 1240 PM 81 64 93 68 29.88" 0 0.00 156    
Stamford 5ESE  06:25 PM 86 71 61% SE2024 33 mph 166° @ 1132 AM 89 71 85 55 29.89" 0 0.00 175    
Sundown 8WSW  06:25 PM 80 64 62% S2634 54 mph 163° @ 0505 PM 85 64 98 50 29.91" 0 0.07 400    
Tahoka 3NNE  06:25 PM 80 66 62% S3034 38 mph 169° @ 0612 PM 82 64 96 62 29.91" 0 0.00 393    
Tatum NM 2SW  06:25 PM 84 59 46% S2430 41 mph 142° @ 1215 PM 90 59 93 19 29.91" 0 0.32 493    
Throckmorton 1SW  01:15 PM 82 71 68% S811 28 mph 166° @ 1219 PM 85 69 91 64 --0 0.00 526    
Tulia 2ENE  06:25 PM 65 61 90% NW1215 52 mph 186° @ 0325 PM 72 61 98 64 30.00" 0.02 0.69 5    
Turkey 2WSW  06:25 PM 76 69 80% SE1216 24 mph 140° @ 1215 PM 77 63 100 78 29.89" 0 0.00 2    
Umbarger 3NNE  06:25 PM 70 64 81% SE2427 30 mph 165° @ 0323 PM 79 62 95 66 29.95" 0.01 0.09 532    
Vigo Park  06:25 PM 65 61 86% SE79 47 mph 158° @ 0546 PM 75 62 100 68 29.97" 0.72 1.45 8    
Weinert 2NNE  06:25 PM 84 70 62% S1619 34 mph 191° @ 1145 AM 88 69 91 53 29.88" 0 0.00 163    
Welch  06:25 PM 84 66 56% S2429 36 mph 160° @ 0544 PM 88 67 99 51 29.91" 0 0.00 415    
White River Lake 6NW  06:25 PM 79 66 70% SE1216 25 mph 146° @ 0400 PM 80 64 94 70 29.91" 0 0.00 247    
Wolfforth 6SSW  06:25 PM 80 66 65% S2530 41 mph 176° @ 0525 PM 82 63 99 32 29.91" 0 0.01 370    

West Texas Mesonet Home   Site Map/Menu  NWS Lubbock Soil Data  Daily Summary Page  24hr Precip  72hr Precip  Google Plot